Time;durP1;ratioP1;P1;durP2;ratioP2;P2;SDS_P1;SDS_P2;PMS_P1;PMS_P2;Temp;Humidity;BMP_temperature;BMP_pressure;BME280_temperature;BME280_humidity;BME280_pressure;Samples;Min_cycle;Max_cycle;Signal;HPM_P1;HPM_P2
2022/05/09 00:00:13;;;;;;;2.10;0.90;;;12.80;99.90;;;;;;5076398;28;20472;-84
2022/05/09 00:02:41;;;;;;;1.77;1.43;;;12.80;99.90;;;;;;5076363;28;20448;-83
2022/05/09 00:05:09;;;;;;;1.23;0.70;;;12.70;99.90;;;;;;5076125;28;20449;-84
2022/05/09 00:07:38;;;;;;;1.23;1.13;;;12.70;99.90;;;;;;5077214;28;20445;-84
2022/05/09 00:10:05;;;;;;;1.80;1.70;;;12.70;99.90;;;;;;5077007;28;20473;-89
2022/05/09 00:12:32;;;;;;;1.67;0.90;;;12.70;99.90;;;;;;5077249;28;20444;-89
2022/05/09 00:14:58;;;;;;;2.77;1.00;;;12.70;99.90;;;;;;5077531;28;20448;-89
2022/05/09 00:17:25;;;;;;;0.80;0.73;;;12.60;99.90;;;;;;5077697;28;20784;-89
2022/05/09 00:19:52;;;;;;;1.17;0.90;;;12.60;99.90;;;;;;5077563;28;20460;-89
2022/05/09 00:22:19;;;;;;;1.33;0.80;;;12.60;99.90;;;;;;5077534;28;20810;-89
2022/05/09 00:24:47;;;;;;;3.37;1.00;;;12.60;99.90;;;;;;5077362;28;20791;-90
2022/05/09 00:27:13;;;;;;;1.10;1.10;;;12.50;99.90;;;;;;5076943;28;20441;-89
2022/05/09 00:29:40;;;;;;;2.77;1.37;;;12.50;99.90;;;;;;5076788;28;20587;-89
2022/05/09 00:32:08;;;;;;;1.17;0.70;;;12.40;99.90;;;;;;5076785;28;20445;-89
2022/05/09 00:34:37;;;;;;;1.50;0.93;;;12.40;99.90;;;;;;5076589;28;20448;-89
2022/05/09 00:37:05;;;;;;;0.80;0.73;;;12.30;99.90;;;;;;5076929;28;20479;-89
2022/05/09 00:39:33;;;;;;;1.33;1.23;;;12.40;99.90;;;;;;5076980;28;20453;-90
2022/05/09 00:42:09;;;;;;;1.07;0.97;;;12.30;99.90;;;;;;5076540;28;20478;-89
2022/05/09 00:44:35;;;;;;;3.97;1.43;;;12.40;99.90;;;;;;5077086;28;20437;-90
2022/05/09 00:47:02;;;;;;;1.70;0.73;;;12.40;99.90;;;;;;5076437;28;20948;-90
2022/05/09 00:49:34;;;;;;;0.63;0.63;;;12.40;99.90;;;;;;5076606;28;20577;-89
2022/05/09 00:52:06;;;;;;;1.33;1.03;;;12.40;99.90;;;;;;5076603;28;20429;-89
2022/05/09 00:54:37;;;;;;;0.93;0.80;;;12.30;99.90;;;;;;5076461;28;20440;-89
2022/05/09 00:57:14;;;;;;;0.83;0.83;;;12.30;99.90;;;;;;5076778;28;20436;-89
2022/05/09 00:59:43;;;;;;;1.00;0.70;;;12.30;99.90;;;;;;5076734;28;20975;-89
2022/05/09 01:02:12;;;;;;;1.10;0.93;;;12.20;99.90;;;;;;5076711;28;20453;-90
2022/05/09 01:04:45;;;;;;;4.23;1.30;;;12.20;99.90;;;;;;5076371;28;20507;-89
2022/05/09 01:07:12;;;;;;;2.50;1.37;;;12.20;99.90;;;;;;5076476;28;20433;-89
2022/05/09 01:09:38;;;;;;;3.47;0.90;;;12.10;99.90;;;;;;5075987;28;20492;-90
2022/05/09 01:12:10;;;;;;;1.10;0.70;;;12.10;99.90;;;;;;5076472;28;20449;-90
2022/05/09 01:14:39;;;;;;;0.70;0.70;;;12.10;99.90;;;;;;5076569;28;20432;-89
2022/05/09 01:17:07;;;;;;;1.00;1.00;;;12.00;99.90;;;;;;5076251;28;20931;-90
2022/05/09 01:19:36;;;;;;;1.20;1.10;;;12.00;99.90;;;;;;5076335;28;20457;-89
2022/05/09 01:26:21;;;;;;;;;;;;;;;;;;;;;
2022/05/09 01:28:51;;;;;;;1.73;0.70;;;11.90;99.90;;;;;;4981917;28;20500;-89
2022/05/09 01:31:40;;;;;;;4.07;0.60;;;11.90;99.90;;;;;;5053285;28;20786;-89
2022/05/09 01:37:21;;;;;;;2.13;1.40;;;11.80;99.90;;;;;;5033852;28;20995;-89
2022/05/09 01:39:48;;;;;;;1.10;1.10;;;11.80;99.90;;;;;;5075746;28;20472;-90
2022/05/09 01:42:16;;;;;;;0.50;0.50;;;11.70;99.90;;;;;;5075546;28;20547;-90
2022/05/09 01:44:43;;;;;;;0.70;0.70;;;11.70;99.90;;;;;;5074706;28;20429;-89
2022/05/09 01:49:51;;;;;;;1.83;1.20;;;11.70;99.90;;;;;;5052617;28;20538;-89
2022/05/09 01:52:19;;;;;;;2.70;0.67;;;11.70;99.90;;;;;;5075656;28;20445;-90
2022/05/09 01:54:46;;;;;;;2.17;1.27;;;11.70;99.90;;;;;;5075429;28;20453;-90
2022/05/09 01:57:13;;;;;;;1.17;1.07;;;11.70;99.90;;;;;;5075098;28;20452;-89
2022/05/09 01:59:43;;;;;;;0.80;0.80;;;11.70;99.90;;;;;;5075312;28;20463;-89
2022/05/09 02:02:12;;;;;;;2.30;1.60;;;11.60;99.90;;;;;;5075243;28;20971;-89
2022/05/09 02:04:40;;;;;;;0.90;0.90;;;11.60;99.90;;;;;;5075257;28;20456;-89
2022/05/09 02:07:09;;;;;;;2.50;1.03;;;11.60;99.90;;;;;;5075252;28;20879;-90
2022/05/09 02:09:38;;;;;;;1.43;1.00;;;11.60;99.90;;;;;;5074963;28;20488;-90
2022/05/09 02:12:06;;;;;;;2.60;0.60;;;11.50;99.90;;;;;;5075061;28;20444;-90
2022/05/09 02:14:33;;;;;;;1.00;0.70;;;11.60;99.90;;;;;;5075038;28;20447;-90
2022/05/09 02:17:01;;;;;;;1.97;1.83;;;11.50;99.90;;;;;;5075038;28;20444;-90
2022/05/09 02:19:28;;;;;;;3.80;1.93;;;11.60;99.90;;;;;;5074857;28;20469;-90
2022/05/09 02:21:55;;;;;;;0.60;0.47;;;11.50;99.90;;;;;;5075087;28;20818;-89
2022/05/09 02:24:22;;;;;;;1.90;0.70;;;11.50;99.90;;;;;;5075085;28;20440;-90
2022/05/09 02:26:49;;;;;;;2.20;1.07;;;11.50;99.90;;;;;;5074886;28;20444;-90
2022/05/09 02:29:16;;;;;;;0.93;0.70;;;11.50;99.90;;;;;;5074960;28;20485;-90
2022/05/09 02:31:43;;;;;;;1.70;0.57;;;11.50;99.90;;;;;;5074871;28;20516;-90
2022/05/09 02:34:11;;;;;;;1.30;1.20;;;11.50;99.90;;;;;;5074494;28;20480;-90
2022/05/09 02:36:37;;;;;;;1.13;0.90;;;11.50;99.90;;;;;;5074874;28;20453;-90
2022/05/09 02:39:04;;;;;;;1.90;1.00;;;11.50;99.90;;;;;;5074936;28;20921;-90
2022/05/09 02:41:31;;;;;;;2.37;1.10;;;11.50;99.90;;;;;;5074619;28;20449;-90
2022/05/09 02:43:59;;;;;;;2.10;0.83;;;11.50;99.90;;;;;;5074853;28;20448;-90
2022/05/09 02:46:26;;;;;;;1.53;1.07;;;11.40;99.90;;;;;;5074658;28;20564;-90
2022/05/09 02:48:52;;;;;;;0.47;0.47;;;11.40;99.90;;;;;;5074182;28;20483;-90
2022/05/09 02:51:20;;;;;;;2.23;0.80;;;11.30;99.90;;;;;;5074627;28;20453;-90
2022/05/09 02:53:47;;;;;;;1.23;1.07;;;11.30;99.90;;;;;;5074433;28;20448;-90
2022/05/09 02:56:14;;;;;;;1.43;1.27;;;11.30;99.90;;;;;;5074422;28;20445;-90
2022/05/09 02:58:41;;;;;;;1.53;0.60;;;11.20;99.90;;;;;;5074238;28;20444;-90
2022/05/09 03:01:07;;;;;;;1.10;1.00;;;11.20;99.90;;;;;;5074354;28;20473;-89
2022/05/09 03:06:20;;;;;;;0.60;0.60;;;11.10;99.90;;;;;;5074212;28;20483;-90
2022/05/09 03:08:47;;;;;;;0.87;0.70;;;11.10;99.90;;;;;;5074596;28;20485;-89
2022/05/09 03:11:14;;;;;;;1.17;1.07;;;11.00;99.90;;;;;;5074045;28;20448;-90
2022/05/09 03:13:40;;;;;;;3.80;0.87;;;11.00;99.90;;;;;;5074634;28;20444;-90
2022/05/09 03:16:09;;;;;;;6.40;1.50;;;11.00;99.90;;;;;;5074848;28;20456;-90
2022/05/09 03:18:36;;;;;;;1.40;1.30;;;11.00;99.90;;;;;;5074470;28;20484;-89
2022/05/09 03:21:03;;;;;;;1.17;0.70;;;10.90;99.90;;;;;;5074057;28;20476;-89
2022/05/09 03:23:31;;;;;;;1.87;1.77;;;10.90;99.90;;;;;;5074274;28;20841;-89
2022/05/09 03:25:58;;;;;;;0.70;0.70;;;10.90;99.90;;;;;;5074465;28;20445;-89
2022/05/09 03:28:26;;;;;;;1.87;1.17;;;10.90;99.90;;;;;;5073933;28;20519;-89
2022/05/09 03:30:56;;;;;;;0.70;0.60;;;10.90;99.90;;;;;;5073971;28;20453;-89
2022/05/09 03:33:24;;;;;;;0.50;0.50;;;11.00;99.90;;;;;;5073806;28;20559;-90
2022/05/09 03:35:52;;;;;;;1.10;0.93;;;11.00;99.90;;;;;;5074209;28;20467;-90
2022/05/09 03:38:19;;;;;;;1.03;1.03;;;11.00;99.90;;;;;;5074114;28;20525;-89
2022/05/09 03:40:47;;;;;;;2.77;0.50;;;10.90;99.90;;;;;;5073983;28;20464;-89
2022/05/09 03:43:14;;;;;;;2.43;1.40;;;10.90;99.90;;;;;;5074269;28;20442;-89
2022/05/09 03:45:44;;;;;;;0.77;0.77;;;10.90;99.90;;;;;;5074529;28;20429;-89
2022/05/09 03:48:11;;;;;;;0.60;0.60;;;10.80;99.90;;;;;;5074015;28;20436;-90
2022/05/09 03:50:37;;;;;;;1.80;0.90;;;10.80;99.90;;;;;;5074287;28;20488;-89
2022/05/09 03:53:04;;;;;;;2.30;1.07;;;10.80;99.90;;;;;;5074076;28;20485;-90
2022/05/09 03:55:33;;;;;;;3.10;0.40;;;10.80;99.90;;;;;;5073892;28;20463;-89
2022/05/09 03:58:02;;;;;;;1.07;0.90;;;10.80;99.90;;;;;;5074067;28;20449;-89
2022/05/09 04:00:32;;;;;;;2.03;0.50;;;10.70;99.90;;;;;;5073979;28;20457;-89
2022/05/09 04:02:59;;;;;;;0.50;0.50;;;10.80;99.90;;;;;;5077558;28;20436;-90
2022/05/09 04:05:30;;;;;;;2.10;0.93;;;10.70;99.90;;;;;;5077360;28;20453;-90
2022/05/09 04:07:58;;;;;;;3.07;1.20;;;10.70;99.90;;;;;;5077631;28;20449;-90
2022/05/09 04:10:26;;;;;;;0.90;0.90;;;10.80;99.90;;;;;;5077585;28;20484;-90
2022/05/09 04:12:53;;;;;;;1.70;0.60;;;10.70;99.90;;;;;;5077386;28;20966;-90
2022/05/09 04:18:07;;;;;;;1.80;1.57;;;10.80;99.90;;;;;;5078603;28;20408;-90
2022/05/09 04:20:35;;;;;;;1.07;0.70;;;10.80;99.90;;;;;;5077238;28;20475;-89
2022/05/09 04:23:02;;;;;;;1.10;0.97;;;10.80;99.90;;;;;;5076816;28;20974;-89
2022/05/09 04:25:31;;;;;;;0.80;0.50;;;10.80;99.90;;;;;;5077195;28;20448;-90
2022/05/09 04:27:58;;;;;;;2.73;1.17;;;10.80;99.90;;;;;;5077082;28;20539;-90
2022/05/09 04:30:27;;;;;;;1.40;1.30;;;10.80;99.90;;;;;;5077030;28;20539;-90
2022/05/09 04:32:53;;;;;;;1.30;1.20;;;10.80;99.90;;;;;;5076868;28;20476;-89
2022/05/09 04:35:21;;;;;;;0.70;0.70;;;10.90;99.90;;;;;;5077156;28;20805;-90
2022/05/09 04:37:49;;;;;;;2.40;2.10;;;10.90;99.90;;;;;;5076937;28;20463;-90
2022/05/09 04:40:18;;;;;;;0.73;0.60;;;11.00;99.90;;;;;;5077275;28;20468;-90
2022/05/09 04:42:45;;;;;;;1.80;1.00;;;11.00;99.90;;;;;;5076948;28;20441;-90
2022/05/09 04:45:12;;;;;;;1.17;0.60;;;11.10;99.90;;;;;;5076911;28;20452;-90
2022/05/09 04:47:41;;;;;;;0.80;0.70;;;11.10;99.90;;;;;;5076776;28;20445;-90
2022/05/09 04:50:10;;;;;;;0.70;0.70;;;11.20;99.90;;;;;;5076552;28;20484;-90
2022/05/09 04:52:37;;;;;;;1.73;1.10;;;11.20;99.90;;;;;;5076583;28;20452;-90
2022/05/09 04:55:05;;;;;;;0.80;0.80;;;11.20;99.90;;;;;;5076741;28;20441;-90
2022/05/09 04:57:33;;;;;;;2.53;1.27;;;11.30;99.90;;;;;;5076641;28;20932;-90
2022/05/09 05:00:01;;;;;;;0.87;0.53;;;11.30;99.90;;;;;;5076879;28;20506;-89
2022/05/09 05:02:28;;;;;;;2.30;0.97;;;11.40;99.90;;;;;;5076674;28;20436;-90
2022/05/09 05:04:56;;;;;;;1.03;0.60;;;11.40;99.90;;;;;;5076686;28;20440;-90
2022/05/09 05:07:23;;;;;;;1.47;0.90;;;11.50;99.90;;;;;;5076581;28;20441;-90
2022/05/09 05:09:50;;;;;;;1.90;1.00;;;11.50;99.90;;;;;;5076352;28;20849;-89
2022/05/09 05:12:16;;;;;;;1.93;0.97;;;11.60;99.90;;;;;;5075548;28;20449;-89
2022/05/09 05:14:44;;;;;;;0.73;0.67;;;11.60;99.90;;;;;;5076738;28;20445;-90
2022/05/09 05:17:11;;;;;;;0.63;0.63;;;11.70;99.90;;;;;;5076331;28;20452;-90
2022/05/09 05:19:40;;;;;;;1.00;0.83;;;11.70;99.90;;;;;;5076535;28;20471;-89
2022/05/09 05:22:10;;;;;;;1.93;0.73;;;11.80;99.90;;;;;;5076079;28;20496;-90
2022/05/09 05:24:38;;;;;;;0.87;0.77;;;11.80;99.90;;;;;;5075843;28;20444;-89
2022/05/09 05:27:06;;;;;;;0.97;0.90;;;11.90;99.90;;;;;;5076351;28;20456;-90
2022/05/09 05:29:33;;;;;;;1.80;1.07;;;12.00;99.90;;;;;;5076748;28;20853;-90
2022/05/09 05:32:00;;;;;;;1.27;0.80;;;12.10;99.90;;;;;;5077329;28;20444;-89
2022/05/09 05:34:26;;;;;;;1.10;1.07;;;12.10;99.90;;;;;;5077290;28;20463;-89
2022/05/09 05:36:54;;;;;;;1.00;0.87;;;12.20;99.90;;;;;;5076583;28;20441;-89
2022/05/09 05:39:22;;;;;;;0.93;0.93;;;12.20;99.90;;;;;;5075710;28;20551;-89
2022/05/09 05:41:49;;;;;;;2.03;0.90;;;12.30;99.90;;;;;;5075436;28;20966;-89
2022/05/09 05:44:16;;;;;;;2.43;1.33;;;12.40;99.90;;;;;;5075602;28;20456;-89
2022/05/09 05:46:43;;;;;;;2.90;1.77;;;12.50;99.90;;;;;;5075378;28;20452;-89
2022/05/09 05:49:10;;;;;;;1.43;0.93;;;12.60;99.90;;;;;;5075932;28;20964;-89
2022/05/09 05:51:37;;;;;;;3.13;1.40;;;12.70;99.90;;;;;;5075509;28;20804;-89
2022/05/09 05:54:05;;;;;;;1.60;0.73;;;12.80;99.90;;;;;;5075444;28;20947;-89
2022/05/09 05:56:36;;;;;;;4.73;1.40;;;13.00;99.90;;;;;;5075337;28;21039;-89
2022/05/09 05:59:02;;;;;;;5.10;1.77;;;13.20;99.90;;;;;;5075753;28;20433;-89
2022/05/09 06:01:29;;;;;;;1.90;1.30;;;13.50;99.90;;;;;;5075364;28;20452;-89
2022/05/09 06:03:56;;;;;;;1.37;0.87;;;13.70;99.90;;;;;;5075970;28;20449;-89
2022/05/09 06:06:22;;;;;;;1.33;1.10;;;14.00;99.90;;;;;;5075000;28;20447;-90
2022/05/09 06:08:49;;;;;;;2.00;1.00;;;14.20;99.90;;;;;;5075037;28;20448;-90
2022/05/09 06:11:16;;;;;;;6.43;1.87;;;14.40;99.90;;;;;;5074754;28;20488;-89
2022/05/09 06:13:44;;;;;;;2.73;1.70;;;14.60;99.90;;;;;;5075230;28;20436;-89
2022/05/09 06:16:11;;;;;;;2.00;1.80;;;14.90;99.90;;;;;;5074798;28;20437;-89
2022/05/09 06:18:38;;;;;;;1.30;1.20;;;15.20;99.90;;;;;;5075020;28;20472;-90
2022/05/09 06:21:05;;;;;;;1.07;1.00;;;15.50;99.90;;;;;;5074980;28;20827;-89
2022/05/09 06:23:32;;;;;;;3.17;1.43;;;15.80;99.90;;;;;;5074910;28;20453;-89
2022/05/09 06:26:00;;;;;;;1.77;1.67;;;16.10;99.90;;;;;;5074299;28;20476;-84
2022/05/09 06:28:26;;;;;;;2.63;2.53;;;16.50;99.90;;;;;;5073553;28;20487;-84
2022/05/09 06:30:55;;;;;;;4.87;2.20;;;16.80;99.90;;;;;;5073634;28;20489;-84
2022/05/09 06:33:23;;;;;;;1.53;1.37;;;17.00;99.90;;;;;;5073583;28;20476;-84
2022/05/09 06:35:51;;;;;;;4.10;1.33;;;17.20;99.90;;;;;;5073646;28;20440;-84
2022/05/09 06:38:18;;;;;;;1.80;1.63;;;17.30;99.90;;;;;;5073680;28;20498;-84
2022/05/09 06:40:45;;;;;;;2.70;1.80;;;17.40;99.90;;;;;;5073660;28;20471;-85
2022/05/09 06:43:12;;;;;;;2.50;1.40;;;17.50;99.90;;;;;;5073640;28;20429;-84
2022/05/09 06:45:39;;;;;;;2.60;2.20;;;17.50;99.90;;;;;;5073522;28;20441;-84
2022/05/09 06:48:08;;;;;;;2.20;1.63;;;17.70;99.90;;;;;;5073237;28;20954;-84
2022/05/09 06:50:37;;;;;;;3.70;2.30;;;18.00;99.90;;;;;;5073370;28;20499;-84
2022/05/09 06:53:04;;;;;;;3.97;1.80;;;18.20;99.90;;;;;;5073668;28;20456;-84
2022/05/09 06:55:32;;;;;;;2.10;1.90;;;18.40;99.90;;;;;;5073466;28;20433;-84
2022/05/09 06:57:59;;;;;;;3.60;1.60;;;18.60;99.90;;;;;;5073438;28;20439;-84
2022/05/09 07:00:26;;;;;;;3.77;2.13;;;18.90;99.90;;;;;;5073277;28;20456;-84
2022/05/09 07:02:53;;;;;;;2.83;2.20;;;19.30;99.90;;;;;;5079900;28;20444;-84
2022/05/09 07:05:22;;;;;;;4.10;2.00;;;19.60;99.90;;;;;;5074484;28;20439;-85
2022/05/09 07:07:50;;;;;;;3.20;1.77;;;20.20;99.90;;;;;;5073569;28;20212;-84
2022/05/09 07:10:18;;;;;;;3.08;1.80;;;20.70;99.90;;;;;;5072825;28;20221;-84
2022/05/09 07:12:47;;;;;;;4.32;2.55;;;21.40;99.90;;;;;;5072831;28;20205;-84
2022/05/09 07:15:16;;;;;;;1.63;1.50;;;21.90;99.90;;;;;;5073252;28;20236;-84
2022/05/09 07:17:43;;;;;;;4.15;2.30;;;22.20;99.90;;;;;;5073571;28;20210;-85
2022/05/09 07:20:11;;;;;;;2.97;1.90;;;22.60;99.90;;;;;;5073089;28;20229;-84
2022/05/09 07:22:39;;;;;;;2.28;2.08;;;22.90;99.90;;;;;;5073160;28;20217;-84
2022/05/09 07:25:08;;;;;;;2.33;1.52;;;23.50;99.90;;;;;;5073259;28;20198;-84
2022/05/09 07:27:35;;;;;;;1.75;1.65;;;24.10;99.90;;;;;;5073090;28;20609;-84
2022/05/09 07:30:01;;;;;;;2.63;1.73;;;24.30;99.00;;;;;;5072535;28;20604;-85
2022/05/09 07:32:28;;;;;;;4.55;2.58;;;24.50;97.50;;;;;;5072960;28;20253;-85
2022/05/09 07:34:55;;;;;;;3.55;2.28;;;24.60;95.80;;;;;;5072748;28;20688;-85
2022/05/09 07:37:22;;;;;;;2.00;1.80;;;24.60;95.30;;;;;;5076448;28;20197;-87
2022/05/09 07:39:50;;;;;;;2.22;1.70;;;24.10;95.10;;;;;;5076804;28;20772;-86
2022/05/09 07:42:17;;;;;;;2.35;2.13;;;24.30;94.70;;;;;;5077169;28;20579;-88
2022/05/09 07:44:44;;;;;;;1.83;1.33;;;24.60;95.00;;;;;;5077149;28;20217;-87
2022/05/09 07:47:11;;;;;;;1.63;1.52;;;24.70;92.30;;;;;;5076882;28;20194;-86
2022/05/09 07:49:38;;;;;;;2.88;2.05;;;25.00;91.60;;;;;;5076410;28;20229;-87
2022/05/09 07:52:08;;;;;;;2.00;1.65;;;25.20;92.10;;;;;;5076102;28;20221;-87
2022/05/09 07:54:35;;;;;;;2.38;1.60;;;25.50;91.50;;;;;;5077542;28;20204;-87
2022/05/09 07:57:03;;;;;;;2.20;1.67;;;26.10;88.70;;;;;;5076845;28;20201;-87
2022/05/09 07:59:30;;;;;;;3.05;2.78;;;26.70;86.10;;;;;;5076653;28;20218;-87
2022/05/09 08:01:57;;;;;;;1.55;1.45;;;27.30;80.90;;;;;;5077237;28;20222;-87
2022/05/09 08:04:24;;;;;;;2.30;1.75;;;28.00;77.60;;;;;;5076838;28;20194;-87
2022/05/09 08:06:51;;;;;;;2.35;1.98;;;28.80;75.10;;;;;;5076711;28;20211;-88
2022/05/09 08:09:18;;;;;;;2.13;2.03;;;29.90;69.10;;;;;;5077367;28;20228;-88
2022/05/09 08:11:45;;;;;;;1.75;1.65;;;30.50;65.70;;;;;;5076974;28;20640;-89
2022/05/09 08:14:14;;;;;;;2.17;1.70;;;30.70;63.40;;;;;;5076594;28;20284;-88
2022/05/09 08:16:41;;;;;;;2.00;1.90;;;30.60;62.00;;;;;;5076662;28;20192;-88
2022/05/09 08:19:08;;;;;;;2.80;2.60;;;30.30;60.90;;;;;;5076274;28;20225;-88
2022/05/09 08:21:36;;;;;;;1.98;1.88;;;29.90;61.10;;;;;;5076350;28;20212;-87
2022/05/09 08:24:03;;;;;;;1.77;1.67;;;29.60;60.30;;;;;;5077733;28;20213;-88
2022/05/09 08:26:31;;;;;;;1.85;1.75;;;28.90;60.30;;;;;;5077007;28;20210;-88
2022/05/09 08:28:57;;;;;;;1.40;1.30;;;28.30;60.20;;;;;;5076607;28;20566;-89
2022/05/09 08:31:26;;;;;;;2.10;1.90;;;27.40;61.00;;;;;;5076675;28;20213;-87
2022/05/09 08:33:56;;;;;;;2.38;1.65;;;26.60;64.80;;;;;;5077094;28;20241;-89
2022/05/09 08:39:08;;;;;;;1.90;1.58;;;25.90;66.80;;;;;;5077776;28;20260;-88
2022/05/09 08:41:45;;;;;;;1.27;1.17;;;25.70;67.10;;;;;;5076583;28;20225;-88
2022/05/09 08:44:22;;;;;;;2.53;1.40;;;25.60;68.00;;;;;;5076802;28;20183;-89
2022/05/09 08:47:04;;;;;;;1.48;1.38;;;25.60;68.20;;;;;;5076039;28;20178;-88
2022/05/09 08:49:43;;;;;;;2.70;1.55;;;25.60;68.00;;;;;;5076471;28;20222;-88
2022/05/09 08:52:21;;;;;;;1.45;1.35;;;25.20;69.10;;;;;;5076520;28;20194;-88
2022/05/09 08:54:49;;;;;;;1.67;1.63;;;24.70;70.90;;;;;;5076713;28;20193;-88
2022/05/09 08:57:20;;;;;;;2.53;1.40;;;24.30;72.60;;;;;;5076372;28;20190;-88
2022/05/09 08:59:52;;;;;;;1.70;1.58;;;24.10;73.80;;;;;;5076470;28;20253;-89
2022/05/09 09:02:28;;;;;;;2.40;2.10;;;23.90;73.20;;;;;;5076233;28;20202;-87
2022/05/09 09:04:58;;;;;;;3.50;1.83;;;23.80;75.50;;;;;;5076296;28;20189;-84
2022/05/09 09:07:49;;;;;;;1.60;1.50;;;23.80;74.50;;;;;;5076111;28;20191;-88
2022/05/09 09:10:25;;;;;;;1.38;1.17;;;23.70;76.30;;;;;;5075778;28;20233;-88
2022/05/09 09:13:05;;;;;;;1.45;1.33;;;23.60;74.90;;;;;;5076430;28;20247;-88
2022/05/09 09:15:43;;;;;;;2.13;1.08;;;23.60;76.00;;;;;;5075831;28;20751;-88
2022/05/09 09:18:27;;;;;;;1.00;1.00;;;23.70;76.40;;;;;;5076695;28;20190;-87
2022/05/09 09:21:00;;;;;;;1.63;1.52;;;23.80;75.60;;;;;;5078800;28;20680;-87
2022/05/09 09:23:40;;;;;;;1.27;1.17;;;23.80;77.10;;;;;;5077635;28;20208;-88
2022/05/09 09:26:20;;;;;;;1.65;1.10;;;23.90;75.70;;;;;;5078128;28;20202;-86
2022/05/09 09:28:50;;;;;;;1.63;1.52;;;23.90;75.00;;;;;;5077085;28;20190;-87
2022/05/09 09:31:25;;;;;;;1.45;1.35;;;23.80;74.60;;;;;;5078327;28;20206;-86
2022/05/09 09:33:59;;;;;;;1.35;1.10;;;23.70;75.50;;;;;;5077786;28;20251;-87
2022/05/09 09:36:34;;;;;;;3.42;1.70;;;23.50;75.80;;;;;;5077498;28;20194;-87
2022/05/09 09:39:10;;;;;;;1.58;1.45;;;23.40;77.40;;;;;;5077183;28;20666;-88
2022/05/09 09:41:37;;;;;;;1.05;0.95;;;23.30;78.30;;;;;;5076230;28;20259;-88
2022/05/09 09:44:09;;;;;;;1.10;1.10;;;23.40;74.80;;;;;;5076689;28;20217;-88
2022/05/09 09:47:01;;;;;;;1.88;1.55;;;23.30;76.40;;;;;;5076440;28;20186;-87
2022/05/09 09:49:30;;;;;;;1.60;1.30;;;23.30;75.90;;;;;;5084495;28;20233;-87
2022/05/09 09:51:57;;;;;;;1.92;1.83;;;23.30;76.60;;;;;;5078647;28;20202;-89
2022/05/09 09:54:30;;;;;;;1.77;1.30;;;23.30;76.10;;;;;;5078594;28;20202;-87
2022/05/09 09:56:57;;;;;;;1.80;1.30;;;23.50;77.50;;;;;;5077664;28;20218;-87
2022/05/09 09:59:30;;;;;;;1.58;1.42;;;23.40;75.50;;;;;;5076810;28;20233;-87
2022/05/09 10:02:07;;;;;;;1.20;1.13;;;23.40;75.50;;;;;;5076996;28;20206;-89
2022/05/09 10:04:36;;;;;;;1.83;1.02;;;23.50;76.40;;;;;;5077723;28;20209;-87
2022/05/09 10:07:06;;;;;;;1.45;1.35;;;23.40;74.90;;;;;;5076547;28;20620;-88
2022/05/09 10:09:38;;;;;;;2.70;1.53;;;23.20;76.30;;;;;;5076893;28;20225;-89
2022/05/09 10:12:21;;;;;;;6.20;1.80;;;23.20;78.10;;;;;;5077412;28;20189;-89
2022/05/09 10:14:48;;;;;;;4.37;2.47;;;23.20;77.10;;;;;;5076507;28;20225;-89
2022/05/09 10:17:21;;;;;;;2.70;2.10;;;23.10;76.50;;;;;;5077999;28;20206;-90
2022/05/09 10:19:51;;;;;;;2.20;2.00;;;23.00;78.10;;;;;;5076742;28;20233;-89
2022/05/09 10:25:13;;;;;;;1.75;1.30;;;23.00;77.60;;;;;;5075957;28;20256;-84
2022/05/09 10:27:41;;;;;;;1.77;1.67;;;23.30;75.80;;;;;;5074948;28;20205;-85
2022/05/09 10:30:30;;;;;;;2.57;1.30;;;23.60;76.00;;;;;;5075213;28;20228;-85
2022/05/09 10:33:00;;;;;;;2.00;1.63;;;23.80;76.70;;;;;;5075845;28;20293;-87
2022/05/09 10:35:34;;;;;;;1.75;1.33;;;24.00;75.20;;;;;;5077241;28;20234;-87
2022/05/09 10:38:04;;;;;;;1.20;1.10;;;24.10;74.40;;;;;;5075529;28;20205;-87
2022/05/09 10:40:34;;;;;;;1.98;1.75;;;24.20;74.80;;;;;;5075684;28;20244;-85
2022/05/09 10:43:05;;;;;;;2.13;1.58;;;24.00;73.20;;;;;;5074543;28;20202;-84
2022/05/09 10:45:40;;;;;;;3.15;1.60;;;23.90;74.30;;;;;;5074584;28;20649;-87
2022/05/09 10:48:11;;;;;;;2.45;1.45;;;24.00;75.10;;;;;;5074732;28;20618;-86
2022/05/09 10:50:49;;;;;;;2.70;2.45;;;24.20;73.40;;;;;;5075227;28;20226;-86
2022/05/09 10:53:22;;;;;;;1.92;1.50;;;24.40;70.80;;;;;;5075097;28;20190;-86
2022/05/09 10:56:00;;;;;;;4.78;2.00;;;24.40;72.20;;;;;;5074555;28;20190;-84
2022/05/09 10:58:30;;;;;;;1.50;1.40;;;24.40;72.10;;;;;;5074937;28;20645;-86
2022/05/09 11:01:02;;;;;;;2.55;1.75;;;24.80;72.20;;;;;;5073963;28;20252;-85
2022/05/09 11:03:36;;;;;;;1.60;1.50;;;25.00;71.00;;;;;;5073465;28;20680;-85
2022/05/09 11:06:21;;;;;;;2.40;1.75;;;24.70;69.80;;;;;;5074107;28;20236;-86
2022/05/09 11:09:10;;;;;;;2.70;1.85;;;24.00;71.20;;;;;;5073961;28;20186;-88
2022/05/09 11:11:46;;;;;;;1.67;1.35;;;23.60;71.90;;;;;;5073592;28;20585;-86
2022/05/09 11:14:20;;;;;;;1.65;1.42;;;23.20;72.30;;;;;;5074724;28;20626;-87
2022/05/09 11:17:08;;;;;;;2.13;1.70;;;22.90;74.00;;;;;;5075358;28;20194;-86
2022/05/09 11:19:47;;;;;;;1.90;1.80;;;22.90;75.20;;;;;;5074494;28;20701;-86
2022/05/09 11:22:25;;;;;;;3.10;1.60;;;22.90;75.70;;;;;;5073834;28;20209;-87
2022/05/09 11:25:03;;;;;;;1.07;0.97;;;22.90;76.30;;;;;;5074348;28;20193;-86
2022/05/09 11:27:46;;;;;;;1.60;1.50;;;22.80;76.40;;;;;;5074130;28;20601;-86
2022/05/09 11:30:30;;;;;;;2.17;1.60;;;22.80;76.60;;;;;;5073494;28;20487;-86
2022/05/09 11:33:28;;;;;;;3.50;2.00;;;22.60;77.20;;;;;;5073662;28;20833;-86
2022/05/09 11:36:01;;;;;;;1.50;1.40;;;22.80;76.80;;;;;;5059392;28;20547;-85
2022/05/09 11:38:40;;;;;;;1.70;1.50;;;22.80;75.70;;;;;;5073435;28;20182;-85
2022/05/09 11:41:18;;;;;;;2.10;1.90;;;22.70;75.50;;;;;;5073529;28;20228;-86
2022/05/09 11:44:04;;;;;;;1.73;1.33;;;22.70;76.30;;;;;;5074173;28;20440;-87
2022/05/09 11:46:43;;;;;;;1.73;1.63;;;22.80;74.70;;;;;;5073582;28;20189;-86
2022/05/09 11:49:25;;;;;;;3.07;2.10;;;22.80;74.30;;;;;;5073215;28;20996;-86
2022/05/09 11:51:54;;;;;;;2.97;1.87;;;22.70;76.20;;;;;;5073189;28;20428;-84
2022/05/09 11:54:25;;;;;;;1.40;1.30;;;22.80;75.50;;;;;;5073043;28;20966;-85
2022/05/09 11:56:56;;;;;;;1.10;1.00;;;23.10;73.20;;;;;;5074389;28;20448;-84
2022/05/09 11:59:28;;;;;;;4.80;1.90;;;23.20;72.90;;;;;;5074304;28;20225;-86
2022/05/09 12:02:03;;;;;;;1.47;1.37;;;23.20;73.70;;;;;;5074320;28;20734;-86
2022/05/09 12:04:39;;;;;;;2.83;1.50;;;23.30;74.90;;;;;;5073592;28;20190;-85
2022/05/09 12:07:43;;;;;;;1.60;1.50;;;23.50;73.80;;;;;;5073587;28;20209;-86
2022/05/09 12:10:28;;;;;;;1.52;1.40;;;23.70;72.70;;;;;;5073876;28;20229;-86
2022/05/09 12:12:56;;;;;;;2.60;1.97;;;23.70;74.20;;;;;;5073221;28;20254;-84
2022/05/09 12:15:43;;;;;;;1.73;1.50;;;23.50;72.70;;;;;;5073738;28;20202;-84
2022/05/09 12:18:19;;;;;;;1.87;1.77;;;23.20;73.80;;;;;;5074780;28;20935;-87
2022/05/09 12:21:25;;;;;;;1.47;1.37;;;22.90;73.60;;;;;;5081885;28;20529;-89
2022/05/09 12:24:11;;;;;;;1.77;1.67;;;22.90;74.30;;;;;;5084721;28;20634;-91
2022/05/09 12:26:45;;;;;;;1.13;1.00;;;22.80;74.10;;;;;;5083091;28;20490;-91
2022/05/09 12:29:46;;;;;;;1.30;1.20;;;22.70;71.00;;;;;;5083592;28;21019;-91
2022/05/09 12:32:16;;;;;;;2.57;1.60;;;22.60;72.20;;;;;;5080180;28;21002;-89
2022/05/09 12:34:46;;;;;;;1.03;1.03;;;22.50;73.80;;;;;;5087053;28;20439;-89
2022/05/09 12:37:15;;;;;;;1.37;1.30;;;22.50;73.60;;;;;;5081672;28;20443;-91
2022/05/09 12:39:48;;;;;;;1.83;1.50;;;22.50;74.20;;;;;;5083137;28;20515;-91
2022/05/09 12:42:41;;;;;;;1.83;1.57;;;22.40;74.10;;;;;;5083717;28;20460;-92
2022/05/09 12:45:09;;;;;;;2.37;1.53;;;22.30;73.30;;;;;;5084175;28;20437;-91
2022/05/09 12:47:38;;;;;;;2.40;1.60;;;22.30;75.00;;;;;;5083108;28;20448;-91
2022/05/09 12:50:10;;;;;;;4.40;1.40;;;22.30;73.60;;;;;;5084343;28;20464;-91
2022/05/09 12:52:41;;;;;;;2.00;1.80;;;22.20;74.40;;;;;;5084275;28;20519;-92
2022/05/09 12:57:55;;;;;;;2.10;1.33;;;22.30;76.10;;;;;;5083171;28;20404;-91
2022/05/09 13:00:26;;;;;;;2.80;1.30;;;22.30;74.40;;;;;;5083409;28;20464;-92
2022/05/09 13:02:53;;;;;;;1.20;1.10;;;22.30;73.90;;;;;;5082461;28;20468;-89
2022/05/09 13:05:33;;;;;;;1.60;1.37;;;22.20;73.60;;;;;;5083146;28;20440;-92
2022/05/09 13:08:02;;;;;;;1.30;1.20;;;22.00;73.50;;;;;;5083763;28;20441;-90
2022/05/09 13:10:31;;;;;;;2.67;1.50;;;22.00;74.90;;;;;;5083334;28;20460;-91
2022/05/09 13:13:02;;;;;;;4.33;1.83;;;22.10;74.30;;;;;;5081715;28;20436;-91
2022/05/09 13:15:29;;;;;;;2.83;1.60;;;22.20;74.50;;;;;;5083014;28;20436;-92
2022/05/09 13:17:59;;;;;;;1.43;1.27;;;22.30;74.60;;;;;;5082707;28;20441;-90
2022/05/09 13:20:28;;;;;;;1.47;1.37;;;22.20;75.30;;;;;;5083011;28;20464;-90
2022/05/09 13:22:57;;;;;;;1.60;1.47;;;22.20;75.70;;;;;;5080305;28;20472;-90
2022/05/09 13:25:30;;;;;;;3.23;1.60;;;22.20;74.90;;;;;;5081385;28;20791;-89
2022/05/09 13:28:02;;;;;;;2.97;2.70;;;22.20;74.30;;;;;;5081146;28;20915;-89